createdAt,value
2023-08-24T00:01:13.319Z,49.50
2023-08-24T00:03:42.307Z,49.19
2023-08-24T00:06:10.416Z,49.16
2023-08-24T00:08:38.151Z,49.10
2023-08-24T00:11:06.697Z,49.56
2023-08-24T00:13:34.519Z,49.49
2023-08-24T00:16:02.180Z,49.59
2023-08-24T00:18:31.230Z,49.20
2023-08-24T00:20:59.242Z,49.46
2023-08-24T00:23:27.401Z,49.80
2023-08-24T00:25:54.952Z,49.96
2023-08-24T00:28:22.511Z,49.92
2023-08-24T00:30:50.102Z,49.66
2023-08-24T00:33:17.682Z,49.59
2023-08-24T00:35:46.615Z,49.84
2023-08-24T00:38:14.234Z,50.17
2023-08-24T00:40:43.832Z,50.36
2023-08-24T00:43:11.423Z,50.73
2023-08-24T00:45:39.343Z,50.78
2023-08-24T00:48:07.709Z,50.82
2023-08-24T00:50:35.821Z,50.62
2023-08-24T00:53:05.576Z,50.44
2023-08-24T00:55:34.135Z,50.42
2023-08-24T00:58:02.011Z,50.65
2023-08-24T01:00:29.790Z,50.47
2023-08-24T01:02:57.573Z,50.39
2023-08-24T01:05:25.709Z,50.64
2023-08-24T01:07:53.486Z,50.84
2023-08-24T01:10:22.701Z,50.80
2023-08-24T01:13:07.418Z,51.28
2023-08-24T01:15:40.805Z,51.10
2023-08-24T01:18:16.310Z,51.51
2023-08-24T01:20:45.736Z,51.49
2023-08-24T01:23:29.801Z,51.30
2023-08-24T01:26:06.140Z,51.66
2023-08-24T01:28:34.320Z,51.58
2023-08-24T01:31:02.535Z,51.76
2023-08-24T01:33:30.163Z,51.75
2023-08-24T01:35:57.793Z,51.67
2023-08-24T01:38:25.587Z,51.74
2023-08-24T01:40:59.201Z,51.76
2023-08-24T01:43:44.031Z,51.89
2023-08-24T01:46:16.019Z,51.99
2023-08-24T01:48:45.247Z,52.18
2023-08-24T01:51:13.989Z,52.66
2023-08-24T01:53:43.271Z,52.94
2023-08-24T01:56:12.151Z,52.32
2023-08-24T01:58:41.600Z,52.69
2023-08-24T02:01:09.822Z,52.64
2023-08-24T02:03:37.590Z,52.75
2023-08-24T02:06:06.242Z,52.26
2023-08-24T02:08:33.829Z,52.39
2023-08-24T02:11:01.556Z,52.72
2023-08-24T02:13:29.512Z,52.41
2023-08-24T02:16:05.299Z,52.77
2023-08-24T02:18:33.193Z,52.89
2023-08-24T02:21:00.829Z,52.74
2023-08-24T02:23:28.560Z,52.55
2023-08-24T02:25:58.616Z,52.82
2023-08-24T02:28:26.379Z,53.14
2023-08-24T02:30:54.134Z,52.89
2023-08-24T02:33:23.117Z,53.11
2023-08-24T02:35:50.728Z,53.15
2023-08-24T02:38:18.333Z,53.11
2023-08-24T02:40:46.328Z,52.76
2023-08-24T02:43:14.282Z,52.48
2023-08-24T02:45:41.923Z,52.79
2023-08-24T02:48:10.651Z,52.91
2023-08-24T02:50:39.680Z,52.71
2023-08-24T02:53:07.270Z,52.71
2023-08-24T02:55:35.193Z,52.74
2023-08-24T02:58:02.792Z,52.99
2023-08-24T03:00:30.417Z,53.41
2023-08-24T03:02:58.078Z,53.37
2023-08-24T03:05:25.984Z,53.30
2023-08-24T03:07:55.178Z,53.73
2023-08-24T03:10:22.819Z,53.88
2023-08-24T03:12:50.522Z,54.13
2023-08-24T03:15:18.607Z,54.03
2023-08-24T03:17:46.387Z,54.39
2023-08-24T03:20:14.975Z,54.24
2023-08-24T03:22:42.727Z,53.86
2023-08-24T03:25:11.750Z,53.99
2023-08-24T03:27:40.083Z,53.99
2023-08-24T03:30:09.405Z,54.26
2023-08-24T03:32:37.078Z,53.89
2023-08-24T03:35:05.216Z,54.08
2023-08-24T03:37:32.856Z,53.71
2023-08-24T03:40:00.655Z,53.99
2023-08-24T03:42:29.699Z,54.08
2023-08-24T03:44:57.321Z,55.41
2023-08-24T03:47:24.917Z,57.02
2023-08-24T03:49:52.640Z,57.83
2023-08-24T03:52:20.250Z,57.36
2023-08-24T03:54:48.106Z,57.17
2023-08-24T03:57:17.380Z,57.74
2023-08-24T03:59:46.635Z,59.39
2023-08-24T04:02:14.324Z,59.10
2023-08-24T04:04:41.902Z,59.21
2023-08-24T04:07:09.473Z,59.79
2023-08-24T04:09:37.112Z,60.70
2023-08-24T04:12:05.095Z,61.64
2023-08-24T04:14:32.735Z,60.92
2023-08-24T04:17:01.662Z,61.61
2023-08-24T04:19:29.226Z,61.23
2023-08-24T04:21:56.816Z,62.73
2023-08-24T04:24:26.246Z,61.92
2023-08-24T04:26:53.968Z,62.84
2023-08-24T04:29:21.901Z,62.66
2023-08-24T04:31:49.520Z,62.18
2023-08-24T04:34:18.487Z,62.65
2023-08-24T04:36:46.048Z,63.39
2023-08-24T04:39:13.710Z,63.71
2023-08-24T04:41:41.300Z,64.77
2023-08-24T04:44:09.437Z,64.04
2023-08-24T04:46:37.051Z,64.02
2023-08-24T04:49:05.057Z,63.91
2023-08-24T04:51:33.979Z,63.14
2023-08-24T04:54:01.629Z,63.04
2023-08-24T04:56:29.233Z,64.06
2023-08-24T04:58:57.869Z,63.81
2023-08-24T05:01:26.040Z,62.90
2023-08-24T05:03:54.005Z,62.50
2023-08-24T05:06:21.625Z,62.92
2023-08-24T05:08:50.771Z,62.16
2023-08-24T05:11:20.362Z,61.66
2023-08-24T05:13:48.361Z,61.54
2023-08-24T05:16:16.191Z,62.83
2023-08-24T05:18:43.863Z,62.34
2023-08-24T05:21:11.460Z,63.58
2023-08-24T05:23:39.088Z,64.15
2023-08-24T05:26:08.205Z,64.29
2023-08-24T05:28:35.789Z,63.37
2023-08-24T05:31:03.460Z,63.67
2023-08-24T05:33:32.166Z,63.25
2023-08-24T05:36:00.036Z,63.41
2023-08-24T05:38:27.817Z,62.93
2023-08-24T05:40:55.487Z,63.39
2023-08-24T05:43:24.422Z,62.72
2023-08-24T05:45:52.044Z,62.70
2023-08-24T05:48:19.690Z,62.18
2023-08-24T05:50:48.374Z,62.26
2023-08-24T05:53:16.395Z,63.02
2023-08-24T05:55:43.975Z,61.90
2023-08-24T05:58:11.561Z,62.98
2023-08-24T06:00:40.508Z,63.64
2023-08-24T06:03:08.210Z,64.04
2023-08-24T06:05:35.806Z,63.50
2023-08-24T06:08:03.399Z,62.83
2023-08-24T06:10:31.971Z,62.26
2023-08-24T06:12:59.578Z,60.78
2023-08-24T06:15:29.067Z,59.52
2023-08-24T06:17:59.993Z,59.49
2023-08-24T06:20:27.682Z,59.29
2023-08-24T06:22:56.727Z,58.31
2023-08-24T06:25:24.352Z,57.41
2023-08-24T06:27:52.320Z,57.03
2023-08-24T06:30:20.523Z,57.05
2023-08-24T06:32:48.128Z,55.99
2023-08-24T06:35:17.303Z,54.86
2023-08-24T06:37:45.054Z,53.19
2023-08-24T06:40:14.300Z,52.81
2023-08-24T06:42:41.880Z,52.24
2023-08-24T06:45:11.546Z,51.75
2023-08-24T06:47:39.405Z,50.95
2023-08-24T06:50:08.138Z,50.51
2023-08-24T06:52:37.073Z,50.71
2023-08-24T06:55:05.286Z,50.64
2023-08-24T06:57:32.953Z,50.78
2023-08-24T07:00:01.225Z,51.30
2023-08-24T07:02:29.468Z,51.41
2023-08-24T07:04:58.203Z,51.78
2023-08-24T07:07:26.488Z,52.23
2023-08-24T07:09:55.503Z,51.96
2023-08-24T07:12:23.111Z,52.30
2023-08-24T07:14:50.678Z,51.98
2023-08-24T07:17:19.120Z,51.16
2023-08-24T07:19:46.729Z,50.76
2023-08-24T07:22:14.587Z,50.03
2023-08-24T07:24:45.810Z,49.53
2023-08-24T07:27:15.825Z,49.73
2023-08-24T07:29:43.447Z,49.49
2023-08-24T07:32:11.166Z,49.41
2023-08-24T07:34:38.829Z,48.96
2023-08-24T07:37:06.449Z,48.74
2023-08-24T07:39:34.616Z,48.77
2023-08-24T07:42:02.199Z,48.09
2023-08-24T07:44:31.464Z,48.21
2023-08-24T07:46:59.053Z,47.59
2023-08-24T07:49:26.710Z,47.78
2023-08-24T07:51:54.368Z,47.44
2023-08-24T07:54:22.523Z,47.33
2023-08-24T07:56:50.084Z,46.92
2023-08-24T07:59:17.698Z,46.51
2023-08-24T08:01:46.736Z,46.44
2023-08-24T08:04:14.355Z,46.43
2023-08-24T08:06:41.928Z,47.03
2023-08-24T08:09:09.556Z,46.85
2023-08-24T08:11:37.254Z,46.94
2023-08-24T08:14:04.839Z,47.38
2023-08-24T08:16:32.854Z,46.76
2023-08-24T08:19:01.824Z,46.99
2023-08-24T08:21:30.376Z,46.31
2023-08-24T08:23:57.950Z,46.35
2023-08-24T08:26:25.590Z,46.56
2023-08-24T08:28:53.143Z,46.45
2023-08-24T08:31:22.397Z,45.91
2023-08-24T08:33:50.285Z,46.31
2023-08-24T08:36:19.259Z,44.88
2023-08-24T08:38:46.863Z,44.57
2023-08-24T08:41:14.932Z,44.23
2023-08-24T08:43:43.472Z,43.84
2023-08-24T08:46:12.847Z,43.82
2023-08-24T08:48:42.298Z,44.54
2023-08-24T08:51:11.483Z,45.40
2023-08-24T08:53:40.614Z,44.92
2023-08-24T08:56:09.760Z,43.76
2023-08-24T08:58:38.452Z,42.73
2023-08-24T09:01:06.926Z,42.25
2023-08-24T09:03:36.294Z,42.50
2023-08-24T09:06:03.942Z,42.93
2023-08-24T09:08:32.324Z,41.99
2023-08-24T09:11:01.903Z,41.26
2023-08-24T09:13:29.861Z,41.05
2023-08-24T09:16:05.475Z,41.64
2023-08-24T09:18:37.875Z,40.92
2023-08-24T09:21:10.552Z,40.87
2023-08-24T09:23:45.059Z,41.34
2023-08-24T09:26:14.082Z,40.83
2023-08-24T09:28:44.677Z,39.24
2023-08-24T09:31:14.214Z,39.70
2023-08-24T09:33:46.437Z,38.64
2023-08-24T09:36:16.400Z,38.16
2023-08-24T09:38:49.871Z,37.67
2023-08-24T09:41:18.832Z,37.78
2023-08-24T09:43:46.422Z,37.59
2023-08-24T09:46:14.016Z,37.40
2023-08-24T09:48:41.617Z,37.31
2023-08-24T09:51:10.513Z,37.00
2023-08-24T09:53:42.084Z,36.98
2023-08-24T09:56:10.800Z,36.64
2023-08-24T09:58:39.820Z,36.36
2023-08-24T10:01:07.770Z,37.20
2023-08-24T10:03:38.578Z,36.99
2023-08-24T10:06:09.480Z,36.71
2023-08-24T10:08:39.112Z,36.40
2023-08-24T10:11:08.086Z,37.55
2023-08-24T10:13:42.149Z,37.22
2023-08-24T10:16:10.951Z,36.34
2023-08-24T10:18:39.136Z,36.07
2023-08-24T10:21:07.015Z,36.77
2023-08-24T10:23:36.453Z,36.40
2023-08-24T10:26:05.464Z,35.63
2023-08-24T10:28:34.362Z,35.19
2023-08-24T10:31:04.617Z,35.51
2023-08-24T10:33:35.267Z,35.27
2023-08-24T10:36:06.856Z,35.19
2023-08-24T10:38:37.536Z,35.36
2023-08-24T10:41:06.122Z,34.73
2023-08-24T10:43:37.147Z,34.92
2023-08-24T10:46:06.575Z,34.93
2023-08-24T10:48:59.073Z,34.63
2023-08-24T10:51:27.230Z,34.84
2023-08-24T10:53:57.489Z,34.74
2023-08-24T10:56:33.249Z,35.58
2023-08-24T10:59:15.553Z,34.75
2023-08-24T11:01:56.758Z,35.00
2023-08-24T11:04:24.398Z,34.38
2023-08-24T11:06:56.799Z,34.02
2023-08-24T11:09:25.611Z,34.24
2023-08-24T11:12:01.112Z,33.97
2023-08-24T11:14:31.262Z,33.85
2023-08-24T11:17:03.495Z,33.25
2023-08-24T11:19:32.269Z,33.87
2023-08-24T11:22:00.940Z,34.42
2023-08-24T11:24:29.584Z,34.25
2023-08-24T11:26:57.359Z,33.81
2023-08-24T11:29:27.079Z,32.67
2023-08-24T11:31:55.233Z,32.78
2023-08-24T11:34:24.248Z,33.11
2023-08-24T11:36:52.253Z,33.68
2023-08-24T11:39:21.585Z,32.94
2023-08-24T11:42:00.185Z,31.62
2023-08-24T11:44:29.444Z,31.41
2023-08-24T11:46:59.275Z,31.70
2023-08-24T11:49:28.636Z,32.21
2023-08-24T11:51:56.813Z,32.22
2023-08-24T11:54:24.447Z,32.17
2023-08-24T11:56:52.039Z,32.03
2023-08-24T11:59:19.998Z,31.40
2023-08-24T12:01:49.124Z,31.79
2023-08-24T12:04:16.708Z,32.09
2023-08-24T12:06:45.677Z,32.36
2023-08-24T12:09:13.366Z,32.08
2023-08-24T12:11:41.081Z,32.33
2023-08-24T12:14:19.233Z,31.71
2023-08-24T12:16:47.245Z,31.65
2023-08-24T12:19:14.824Z,31.32
2023-08-24T12:21:47.506Z,29.89
2023-08-24T12:24:16.460Z,28.82
2023-08-24T12:26:44.234Z,28.85
2023-08-24T12:29:11.908Z,28.33
2023-08-24T12:31:45.097Z,27.07
2023-08-24T12:34:12.708Z,27.30
2023-08-24T12:36:42.356Z,27.25
2023-08-24T12:39:14.280Z,27.12
2023-08-24T12:41:41.863Z,26.34
2023-08-24T12:44:11.708Z,26.09
2023-08-24T12:46:40.478Z,26.57
2023-08-24T12:49:08.177Z,26.25
2023-08-24T12:51:35.748Z,25.25
2023-08-24T12:54:03.414Z,24.64
2023-08-24T12:56:32.473Z,24.06
2023-08-24T12:59:00.102Z,24.79
2023-08-24T13:01:27.926Z,24.74
2023-08-24T13:03:55.524Z,24.62
2023-08-24T13:06:25.015Z,23.75
2023-08-24T13:08:53.227Z,23.29
2023-08-24T13:11:21.037Z,22.61
2023-08-24T13:13:50.156Z,22.37
2023-08-24T13:16:17.868Z,21.81
2023-08-24T13:18:45.560Z,21.63
2023-08-24T13:21:14.008Z,21.18
2023-08-24T13:23:42.605Z,21.48
2023-08-24T13:26:20.105Z,21.51
2023-08-24T13:28:47.953Z,21.58
2023-08-24T13:31:17.020Z,21.58
2023-08-24T13:33:44.650Z,21.36
2023-08-24T13:36:12.238Z,21.72
2023-08-24T13:38:39.823Z,21.81
2023-08-24T13:41:07.373Z,20.06
2023-08-24T13:43:34.981Z,19.88
2023-08-24T13:46:04.582Z,19.24
2023-08-24T13:48:34.937Z,19.90
2023-08-24T13:51:02.820Z,19.80
2023-08-24T13:53:30.528Z,19.96
2023-08-24T13:55:58.138Z,19.63
2023-08-24T13:58:25.700Z,19.34
2023-08-24T14:00:57.195Z,19.84
2023-08-24T14:03:24.915Z,19.85
2023-08-24T14:05:58.329Z,18.74
2023-08-24T14:08:26.101Z,19.64
2023-08-24T14:10:53.922Z,19.44
2023-08-24T14:13:22.292Z,19.17
2023-08-24T14:15:50.920Z,19.64
2023-08-24T14:18:18.836Z,19.27
2023-08-24T14:20:46.404Z,19.80
2023-08-24T14:23:15.485Z,19.55
2023-08-24T14:25:43.144Z,19.69
2023-08-24T14:28:11.620Z,20.23
2023-08-24T14:30:41.086Z,18.98
2023-08-24T14:33:08.973Z,19.22
2023-08-24T14:35:37.087Z,19.67
2023-08-24T14:38:05.158Z,19.62
2023-08-24T14:40:34.318Z,19.63
2023-08-24T14:43:02.028Z,19.29
2023-08-24T14:45:30.044Z,18.66
2023-08-24T14:47:58.078Z,19.27
2023-08-24T14:50:26.085Z,18.68
2023-08-24T14:52:55.030Z,18.74
2023-08-24T14:55:22.676Z,19.02
2023-08-24T14:57:54.027Z,19.18
2023-08-24T15:00:22.107Z,19.52
2023-08-24T15:02:49.787Z,19.36
2023-08-24T15:05:18.168Z,19.42
2023-08-24T15:07:46.715Z,18.90
2023-08-24T15:10:14.352Z,18.85
2023-08-24T15:12:42.073Z,19.60
2023-08-24T15:15:11.846Z,19.56
2023-08-24T15:17:39.554Z,19.98
2023-08-24T15:20:08.334Z,19.65
2023-08-24T15:22:37.341Z,19.95
2023-08-24T15:25:05.886Z,19.61
2023-08-24T15:27:33.446Z,19.48
2023-08-24T15:30:02.085Z,20.47
2023-08-24T15:32:31.098Z,20.46
2023-08-24T15:34:58.680Z,19.82
2023-08-24T15:37:26.266Z,20.74
2023-08-24T15:39:53.838Z,21.10
2023-08-24T15:42:21.424Z,20.51
2023-08-24T15:44:49.103Z,20.50
2023-08-24T15:47:16.711Z,20.53
2023-08-24T15:49:45.753Z,20.70
2023-08-24T15:52:13.369Z,20.57
2023-08-24T15:54:40.983Z,20.60
2023-08-24T15:57:09.434Z,20.52
2023-08-24T15:59:37.059Z,21.00
2023-08-24T16:02:05.708Z,21.73
2023-08-24T16:04:33.322Z,22.46
2023-08-24T16:07:02.241Z,22.23
2023-08-24T16:09:29.824Z,22.20
2023-08-24T16:11:57.395Z,22.04
2023-08-24T16:14:25.107Z,22.61
2023-08-24T16:16:53.645Z,22.74
2023-08-24T16:19:22.397Z,24.00
2023-08-24T16:21:49.977Z,25.14
2023-08-24T16:24:18.934Z,25.77
2023-08-24T16:26:46.483Z,26.54
2023-08-24T16:29:14.167Z,28.53
2023-08-24T16:31:41.806Z,28.13
2023-08-24T16:34:09.532Z,28.35
2023-08-24T16:36:37.326Z,29.69
2023-08-24T16:39:05.116Z,29.20
2023-08-24T16:41:34.291Z,30.57
2023-08-24T16:44:01.853Z,31.70
2023-08-24T16:46:30.899Z,32.22
2023-08-24T16:48:58.511Z,32.79
2023-08-24T16:51:27.003Z,33.37
2023-08-24T16:53:54.575Z,33.87
2023-08-24T16:56:22.151Z,33.06
2023-08-24T16:58:51.146Z,34.53
2023-08-24T17:01:18.768Z,35.31
2023-08-24T17:03:46.558Z,35.75
2023-08-24T17:06:14.221Z,36.11
2023-08-24T17:08:41.811Z,35.68
2023-08-24T17:11:09.394Z,35.75
2023-08-24T17:13:36.963Z,36.18
2023-08-24T17:16:07.116Z,36.59
2023-08-24T17:18:35.215Z,36.60
2023-08-24T17:21:04.623Z,36.09
2023-08-24T17:23:32.260Z,34.58
2023-08-24T17:26:00.060Z,34.69
2023-08-24T17:28:28.763Z,35.21
2023-08-24T17:30:56.376Z,35.68
2023-08-24T17:33:25.588Z,35.57
2023-08-24T17:35:54.124Z,36.08
2023-08-24T17:38:22.310Z,36.11
2023-08-24T17:40:49.900Z,35.78
2023-08-24T17:43:17.460Z,36.04
2023-08-24T17:45:45.045Z,36.72
2023-08-24T17:48:12.676Z,36.89
2023-08-24T17:50:42.375Z,35.74
2023-08-24T17:53:11.110Z,36.66
2023-08-24T17:55:38.657Z,36.21
2023-08-24T17:58:06.272Z,36.65
2023-08-24T18:00:33.843Z,36.78
2023-08-24T18:03:01.523Z,33.81
2023-08-24T18:05:29.175Z,35.13
2023-08-24T18:07:58.320Z,38.04
2023-08-24T18:10:25.885Z,37.87
2023-08-24T18:12:53.457Z,36.98
2023-08-24T18:15:31.930Z,35.51
2023-08-24T18:18:01.444Z,35.75
2023-08-24T18:20:29.121Z,35.18
2023-08-24T18:22:58.599Z,36.00
2023-08-24T18:25:26.931Z,35.89
2023-08-24T18:27:55.624Z,36.39
2023-08-24T18:30:23.551Z,36.50
2023-08-24T18:32:51.224Z,36.76
2023-08-24T18:35:19.678Z,37.89
2023-08-24T18:37:47.375Z,38.38
2023-08-24T18:40:16.339Z,38.43
2023-08-24T18:42:43.896Z,37.97
2023-08-24T18:45:11.996Z,38.50
2023-08-24T18:47:40.654Z,37.43
2023-08-24T18:50:08.731Z,37.45
2023-08-24T18:52:36.304Z,37.00
2023-08-24T18:55:04.039Z,37.02
2023-08-24T18:57:33.031Z,36.75
2023-08-24T19:00:00.623Z,36.93
2023-08-24T19:02:28.314Z,37.04
2023-08-24T19:04:56.038Z,37.81
2023-08-24T19:07:23.633Z,37.62
2023-08-24T19:09:51.216Z,37.46
2023-08-24T19:12:18.808Z,37.11
2023-08-24T19:14:47.745Z,36.26
2023-08-24T19:17:15.317Z,36.32
2023-08-24T19:19:42.890Z,36.24
2023-08-24T19:22:10.482Z,36.49
2023-08-24T19:24:38.071Z,36.60
2023-08-24T19:27:06.125Z,36.98
2023-08-24T19:29:33.695Z,37.41
2023-08-24T19:32:02.628Z,39.04
2023-08-24T19:34:30.280Z,39.29
2023-08-24T19:36:57.853Z,39.89
2023-08-24T19:39:25.419Z,40.45
2023-08-24T19:41:59.785Z,41.27
2023-08-24T19:44:28.121Z,42.05
2023-08-24T19:46:55.736Z,42.19
2023-08-24T19:49:24.947Z,41.77
2023-08-24T19:51:52.806Z,41.82
2023-08-24T19:54:20.617Z,41.26
2023-08-24T19:56:48.301Z,40.99
2023-08-24T19:59:15.987Z,40.88
2023-08-24T20:01:43.848Z,40.09
2023-08-24T20:04:11.568Z,40.17
2023-08-24T20:06:41.455Z,40.36
2023-08-24T20:09:13.188Z,40.90
2023-08-24T20:11:40.904Z,41.46
2023-08-24T20:14:09.590Z,41.46
2023-08-24T20:16:37.150Z,40.92
2023-08-24T20:19:04.993Z,40.72
2023-08-24T20:21:33.873Z,41.02
2023-08-24T20:24:02.783Z,41.20
2023-08-24T20:26:30.359Z,40.99
2023-08-24T20:28:57.969Z,41.37
2023-08-24T20:31:25.605Z,41.75
2023-08-24T20:33:53.226Z,41.61
2023-08-24T20:36:20.797Z,41.81
2023-08-24T20:38:48.351Z,41.74
2023-08-24T20:41:17.282Z,41.56
2023-08-24T20:43:46.335Z,41.70
2023-08-24T20:46:13.993Z,41.82
2023-08-24T20:48:41.578Z,41.96
2023-08-24T20:51:09.171Z,41.95
2023-08-24T20:53:36.726Z,42.31
2023-08-24T20:56:04.948Z,42.71
2023-08-24T20:58:33.880Z,43.11
2023-08-24T21:01:06.330Z,43.36
2023-08-24T21:03:34.126Z,43.67
2023-08-24T21:06:01.840Z,43.93
2023-08-24T21:08:29.638Z,43.80
2023-08-24T21:10:59.518Z,43.90
2023-08-24T21:13:27.131Z,43.80
2023-08-24T21:16:00.409Z,44.12
2023-08-24T21:18:28.048Z,44.13
2023-08-24T21:20:59.732Z,44.22
2023-08-24T21:23:27.532Z,44.36
2023-08-24T21:25:55.134Z,44.62
2023-08-24T21:28:22.693Z,45.40
2023-08-24T21:30:50.519Z,45.75
2023-08-24T21:33:19.909Z,46.24
2023-08-24T21:35:47.486Z,46.25
2023-08-24T21:38:15.060Z,45.84
2023-08-24T21:40:42.753Z,45.54
2023-08-24T21:43:10.311Z,46.01
2023-08-24T21:45:37.966Z,46.53
2023-08-24T21:48:06.637Z,46.75
2023-08-24T21:50:37.100Z,46.45
2023-08-24T21:53:05.168Z,46.00
2023-08-24T21:55:37.522Z,45.42
2023-08-24T21:58:05.594Z,45.59
2023-08-24T22:00:33.348Z,46.64
2023-08-24T22:03:00.988Z,46.74
2023-08-24T22:05:28.646Z,46.93
2023-08-24T22:07:57.611Z,47.66
2023-08-24T22:10:25.294Z,48.07
2023-08-24T22:12:52.949Z,48.24
2023-08-24T22:15:20.522Z,48.86
2023-08-24T22:17:48.230Z,48.78
2023-08-24T22:20:18.669Z,48.49
2023-08-24T22:22:46.241Z,49.30
2023-08-24T22:25:15.158Z,49.56
2023-08-24T22:27:42.732Z,49.45
2023-08-24T22:30:11.569Z,49.64
2023-08-24T22:32:39.190Z,49.26
2023-08-24T22:35:08.186Z,49.36
2023-08-24T22:37:36.457Z,49.90
2023-08-24T22:40:10.320Z,49.83
2023-08-24T22:42:39.385Z,50.45
2023-08-24T22:45:08.292Z,52.33
2023-08-24T22:47:35.109Z,51.33
2023-08-24T22:50:07.637Z,52.40
2023-08-24T22:52:35.260Z,54.38
2023-08-24T22:55:03.651Z,53.78
2023-08-24T22:57:31.452Z,53.18
2023-08-24T23:00:00.511Z,52.95
2023-08-24T23:02:28.219Z,53.39
2023-08-24T23:04:55.912Z,53.96
2023-08-24T23:07:23.695Z,54.40
2023-08-24T23:09:51.293Z,54.82
2023-08-24T23:12:22.461Z,54.38
2023-08-24T23:14:50.506Z,54.28
2023-08-24T23:17:19.826Z,54.72
2023-08-24T23:19:47.481Z,53.61
2023-08-24T23:22:15.572Z,53.65
2023-08-24T23:24:51.349Z,54.03
2023-08-24T23:27:19.537Z,54.64
2023-08-24T23:29:48.209Z,56.89
2023-08-24T23:32:17.699Z,56.80
2023-08-24T23:34:46.914Z,55.75
2023-08-24T23:37:14.447Z,55.32
2023-08-24T23:39:42.086Z,55.41
2023-08-24T23:42:09.671Z,54.96
2023-08-24T23:44:37.233Z,55.07
2023-08-24T23:47:05.130Z,55.88
2023-08-24T23:49:32.821Z,58.08
2023-08-24T23:52:01.807Z,57.99
2023-08-24T23:54:29.410Z,57.71
2023-08-24T23:56:57.036Z,56.76
2023-08-24T23:59:24.619Z,56.58
